Somerton, AZ (85350)

9:31 AM MST on September 05, 2015 (GMT -0700)
Yuma Marine Corps Air Station | | Change Station
CLOSE
Current Station
Airport
Location: Yuma MCAS,
Elevation: 213 ft
Nearby Weather Stations

Elev 213 ft 32.66 °N, 114.61 °W | Updated 34 minutes ago

Mostly Cloudy
Mostly Cloudy
88 °F
Feels Like 94 °F
N
14
Wind Variable Wind from SE

Today
High -- | Low -- °F
--% Chance of Precip.
Yesterday
High -- | Low -- °F
Precip. -- in
6:16 AM 6:58 PM
Waning Gibbous, 47% visible
Pressure 29.82 in
Visibility 10.0 miles
Clouds Few 2200 ft
Heat Index 94 °F
Dew Point 71 °F
Humidity 57%
Rainfall 0.00 in
Snow Depth Not available.
UV 3 out of 12
Pollen 7.60 out of 12
Air Quality Not available.
Flu Activity Not available.
METAR KNYL 051557Z AUTO 14012KT 10SM FEW022 31/22 A2983 RMK AO2 SLP098 T03110217
Pressure 29.82 in
Visibility 10.0 miles
Clouds Few 2200 ft
Heat Index 94 °F
Dew Point 71 °F
Humidity 57%
Rainfall 0.00 in
Snow Depth Not available.
UV 3 out of 12
Pollen 7.60 out of 12
Air Quality Not available.
Flu Activity Not available.
METAR KNYL 051557Z AUTO 14012KT 10SM FEW022 31/22 A2983 RMK AO2 SLP098 T03110217

10-Day Weather Forecast

×

Almanac

Astronomy

Sep. 05, 2015 Rise Set
Actual Time
Civil Twilight
Nautical Twilight
Astronomical Twilight
Moon
Length of Visible Light
Length of Day
Tomorrow will be .
, % of the Moon is Illuminated

Today's Extremes

State Highs State Lows

Community

WunderPhotos

Upload Photos

1,852,495 photos uploaded!

WunderBlogs® & News

Nearby

Air Quality

  Air Quality AQ Index Pollutant
Not available.

Snow Depth

Station Depth Elevation

Earthquake Activity

City Distance Mag. Time & Date
Minimum magnitude displayed is 2.5.

Coastal Water Temperatures

Place Temperature

Stations

Nearby Weather Stations

Station Location Temp. Windchill Dew Point Humidity Wind Precip. Elev Updated Type